Time;durP1;ratioP1;P1;durP2;ratioP2;P2;SDS_P1;SDS_P2;PMS_P1;PMS_P2;Temp;Humidity;BMP_temperature;BMP_pressure;BME280_temperature;BME280_humidity;BME280_pressure;Samples;Min_cycle;Max_cycle;Signal;HPM_P1;HPM_P2
2023/01/02 00:02:19;;;;;;;6.30;1.77;;;;;;;12.39;100.00;98902.38;5008519;28;20029;-63
2023/01/02 00:04:44;;;;;;;3.22;1.55;;;;;;;12.37;100.00;98904.50;5009263;28;20017;-63
2023/01/02 00:07:10;;;;;;;2.38;1.13;;;;;;;12.44;100.00;98895.28;5006655;28;20031;-63
2023/01/02 00:09:35;;;;;;;5.57;1.10;;;;;;;12.54;100.00;98888.56;5008072;28;20039;-63
2023/01/02 00:12:01;;;;;;;5.55;1.10;;;;;;;12.53;100.00;98881.47;5026923;28;20112;-62
2023/01/02 00:14:26;;;;;;;3.58;1.25;;;;;;;12.52;100.00;98888.75;5027847;28;20022;-63
2023/01/02 00:16:52;;;;;;;3.47;1.30;;;;;;;12.48;100.00;98882.13;5009717;28;20030;-63
2023/01/02 00:19:17;;;;;;;8.85;1.38;;;;;;;12.47;100.00;98873.16;5024218;28;20080;-62
2023/01/02 00:21:42;;;;;;;7.40;1.10;;;;;;;12.52;100.00;98879.78;5022726;28;20032;-60
2023/01/02 00:24:08;;;;;;;2.00;1.05;;;;;;;12.65;100.00;98877.88;5010875;28;20112;-61
2023/01/02 00:26:33;;;;;;;5.28;1.08;;;;;;;12.71;100.00;98871.59;5005606;28;20277;-60
2023/01/02 00:29:00;;;;;;;3.92;1.40;;;;;;;12.79;100.00;98866.97;5008141;28;20030;-61
2023/01/02 00:31:25;;;;;;;7.38;1.17;;;;;;;12.87;100.00;98867.53;5010137;28;20470;-60
2023/01/02 00:33:51;;;;;;;2.78;1.10;;;;;;;12.82;100.00;98875.50;5024568;28;20062;-60
2023/01/02 00:36:16;;;;;;;4.13;1.40;;;;;;;12.80;100.00;98883.03;5026052;28;20026;-62
2023/01/02 00:38:42;;;;;;;3.03;1.20;;;;;;;12.81;100.00;98882.00;5007080;28;20033;-62
2023/01/02 00:41:08;;;;;;;2.83;1.25;;;;;;;12.86;100.00;98887.63;5010961;28;20022;-62
2023/01/02 00:43:35;;;;;;;2.70;1.00;;;;;;;12.86;100.00;98882.19;5010467;28;20026;-60
2023/01/02 00:46:00;;;;;;;2.30;1.23;;;;;;;12.76;100.00;98880.94;5027218;28;20033;-60
2023/01/02 00:48:26;;;;;;;3.33;1.00;;;;;;;12.55;100.00;98885.66;5025760;28;20052;-61
2023/01/02 00:50:51;;;;;;;2.15;1.25;;;;;;;12.41;100.00;98894.84;5008362;28;20026;-60
2023/01/02 00:53:17;;;;;;;3.20;1.20;;;;;;;12.25;100.00;98888.84;5011495;28;20049;-60
2023/01/02 00:55:44;;;;;;;3.20;1.30;;;;;;;12.13;100.00;98892.41;5007925;28;20061;-61
2023/01/02 00:58:10;;;;;;;3.53;1.17;;;;;;;12.02;100.00;98885.75;5006534;28;20072;-60
2023/01/02 01:00:36;;;;;;;3.03;1.38;;;;;;;12.19;100.00;98876.13;5010794;28;20057;-60
2023/01/02 01:03:01;;;;;;;2.75;1.30;;;;;;;12.28;100.00;98882.16;5022819;28;20053;-61
2023/01/02 01:05:27;;;;;;;4.60;1.90;;;;;;;12.30;100.00;98873.81;5010171;28;20037;-61
2023/01/02 01:07:54;;;;;;;3.40;1.30;;;;;;;12.23;100.00;98873.81;5010111;28;20097;-60
2023/01/02 01:10:22;;;;;;;4.38;1.33;;;;;;;12.07;100.00;98881.34;5010656;28;20026;-60
2023/01/02 01:12:47;;;;;;;3.97;1.88;;;;;;;11.94;100.00;98880.56;5025065;28;20040;-62
2023/01/02 01:15:12;;;;;;;3.63;1.40;;;;;;;11.83;100.00;98874.69;5004904;28;20125;-62
2023/01/02 01:17:38;;;;;;;4.68;1.48;;;;;;;11.71;100.00;98880.94;5008948;28;20159;-62
2023/01/02 01:20:04;;;;;;;2.63;1.30;;;;;;;11.63;100.00;98882.84;5010360;28;20026;-60
2023/01/02 01:22:29;;;;;;;4.40;1.58;;;;;;;11.57;100.00;98872.81;5027974;28;20026;-60
2023/01/02 01:24:55;;;;;;;3.05;1.30;;;;;;;11.59;100.00;98876.16;5021363;28;20029;-60
2023/01/02 01:27:20;;;;;;;3.50;1.52;;;;;;;11.59;100.00;98865.31;5023820;28;20033;-55
2023/01/02 01:29:46;;;;;;;3.63;1.33;;;;;;;11.57;100.00;98869.28;5025109;28;20354;-55
2023/01/02 01:32:11;;;;;;;4.53;1.60;;;;;;;11.56;100.00;98868.44;5010082;28;20036;-55
2023/01/02 01:34:36;;;;;;;3.28;1.25;;;;;;;11.53;100.00;98871.56;5006554;28;20030;-55
2023/01/02 01:37:02;;;;;;;3.72;1.52;;;;;;;11.50;100.00;98865.72;5027142;28;20080;-55
2023/01/02 01:39:27;;;;;;;3.63;1.40;;;;;;;11.38;100.00;98877.19;5024327;28;20037;-55
2023/01/02 01:41:52;;;;;;;3.13;1.30;;;;;;;11.38;100.00;98887.19;5008439;28;20798;-55
2023/01/02 01:44:41;;;;;;;3.05;1.30;;;;;;;11.34;100.00;98883.22;5008765;28;20022;-55
2023/01/02 01:47:39;;;;;;;2.10;1.08;;;;;;;11.32;100.00;98874.47;5030943;28;20026;-55
2023/01/02 01:50:20;;;;;;;5.88;1.60;;;;;;;11.39;100.00;98869.88;5010429;28;20034;-55
2023/01/02 01:53:15;;;;;;;2.65;1.27;;;;;;;11.59;100.00;98870.72;5008458;28;20022;-55
2023/01/02 01:55:50;;;;;;;5.80;1.50;;;;;;;11.59;100.00;98878.88;5007363;28;20061;-56
2023/01/02 01:58:29;;;;;;;3.22;1.35;;;;;;;11.59;100.00;98869.91;5030403;28;20025;-55
2023/01/02 02:00:55;;;;;;;2.33;1.30;;;;;;;11.53;100.00;98876.16;5029356;28;20022;-55
2023/01/02 02:03:24;;;;;;;3.33;1.48;;;;;;;11.47;100.00;98872.38;5028609;28;20381;-55
2023/01/02 02:05:50;;;;;;;6.13;2.10;;;;;;;11.33;100.00;98859.88;5011108;28;20042;-55
2023/01/02 02:08:34;;;;;;;3.13;1.63;;;;;;;11.45;100.00;98881.75;5011129;28;20338;-55
2023/01/02 02:11:01;;;;;;;5.13;1.67;;;;;;;11.48;100.00;98874.06;5029031;28;20017;-55
2023/01/02 02:13:29;;;;;;;5.38;1.80;;;;;;;11.48;100.00;98874.06;5030357;28;20026;-55
2023/01/02 02:16:16;;;;;;;3.70;1.50;;;;;;;11.54;100.00;98867.00;5024973;28;20064;-55
2023/01/02 02:18:42;;;;;;;4.82;2.08;;;;;;;11.50;100.00;98863.88;5016245;28;20053;-55
2023/01/02 02:21:26;;;;;;;6.20;1.75;;;;;;;11.52;100.00;98864.47;5010903;28;20496;-55
2023/01/02 02:24:24;;;;;;;5.80;1.70;;;;;;;11.61;100.00;98857.81;5013966;28;20108;-57
2023/01/02 02:27:21;;;;;;;13.25;1.50;;;;;;;11.68;100.00;98852.38;5025314;28;20037;-57
2023/01/02 02:30:06;;;;;;;3.78;1.45;;;;;;;11.75;100.00;98845.09;5006251;28;20018;-57
2023/01/02 02:33:11;;;;;;;6.93;1.50;;;;;;;11.80;100.00;98841.75;5027376;28;20691;-58
2023/01/02 02:35:51;;;;;;;2.90;1.80;;;;;;;11.72;100.00;98831.97;5014691;28;20038;-58
2023/01/02 02:38:38;;;;;;;3.78;1.25;;;;;;;11.71;100.00;98827.59;5025371;28;20022;-55
2023/01/02 02:41:16;;;;;;;5.72;1.20;;;;;;;11.90;100.00;98828.63;5027767;28;20050;-55
2023/01/02 02:44:03;;;;;;;3.25;1.40;;;;;;;12.07;100.00;98819.00;5026020;28;20053;-55
2023/01/02 02:46:33;;;;;;;2.33;0.98;;;;;;;12.27;100.00;98813.50;5009063;28;20156;-55
2023/01/02 02:49:07;;;;;;;4.75;1.00;;;;;;;12.47;100.00;98818.00;5027461;28;20141;-55
2023/01/02 02:51:35;;;;;;;3.55;1.30;;;;;;;12.50;100.00;98821.16;5026868;28;20041;-55
2023/01/02 02:54:11;;;;;;;7.20;1.40;;;;;;;12.71;100.00;98816.47;5022739;28;20029;-55
2023/01/02 02:56:38;;;;;;;2.20;0.90;;;;;;;12.83;100.00;98822.84;5013014;28;20040;-55
2023/01/02 02:59:03;;;;;;;2.20;0.88;;;;;;;12.97;100.00;98822.78;5013045;28;20026;-55
2023/01/02 03:01:29;;;;;;;3.95;1.00;;;;;;;13.07;100.00;98817.69;5009170;28;20026;-56
2023/01/02 03:03:54;;;;;;;5.35;1.15;;;;;;;13.06;100.00;98816.88;5024105;28;20042;-56
2023/01/02 03:06:39;;;;;;;5.20;1.30;;;;;;;13.18;100.00;98816.16;5010796;28;20030;-55
2023/01/02 03:09:32;;;;;;;5.78;1.17;;;;;;;13.25;100.00;98809.63;5012719;28;20366;-55
2023/01/02 03:12:44;;;;;;;2.92;1.42;;;;;;;13.19;100.00;98799.66;5029449;28;20026;-55
2023/01/02 03:15:12;;;;;;;6.75;1.27;;;;;;;13.26;100.00;98810.47;4998825;28;20580;-55
2023/01/02 03:17:48;;;;;;;3.85;1.80;;;;;;;13.30;100.00;98807.13;5000304;28;20049;-55
2023/01/02 03:20:17;;;;;;;6.28;1.30;;;;;;;13.30;100.00;98806.28;5009380;28;20030;-55
2023/01/02 03:22:50;;;;;;;2.42;0.93;;;;;;;13.44;100.00;98804.28;5027835;28;20449;-55
2023/01/02 03:25:18;;;;;;;2.38;0.85;;;;;;;13.45;100.00;98808.69;5006676;28;20034;-55
2023/01/02 03:27:45;;;;;;;5.38;1.02;;;;;;;13.54;100.00;98812.78;5029363;28;20026;-55
2023/01/02 03:30:18;;;;;;;2.03;0.80;;;;;;;13.65;100.00;98820.22;5021927;28;20030;-55
2023/01/02 03:32:58;;;;;;;2.60;1.10;;;;;;;13.58;100.00;98820.28;5003427;28;20030;-55
2023/01/02 03:35:28;;;;;;;4.82;1.40;;;;;;;13.53;100.00;98816.56;5012447;28;20080;-55
2023/01/02 03:37:57;;;;;;;3.80;0.93;;;;;;;13.67;100.00;98818.09;5028189;28;20022;-55
2023/01/02 03:40:30;;;;;;;2.57;0.93;;;;;;;13.63;100.00;98814.16;5005709;28;20033;-55
2023/01/02 03:43:10;;;;;;;2.72;1.08;;;;;;;13.59;100.00;98805.63;5025037;28;20033;-55
2023/01/02 03:45:42;;;;;;;3.25;0.80;;;;;;;13.63;100.00;98818.78;5011570;28;20017;-55
2023/01/02 03:48:18;;;;;;;6.22;1.10;;;;;;;13.76;100.00;98813.22;5008096;28;20029;-55
2023/01/02 03:50:48;;;;;;;2.97;1.45;;;;;;;13.70;100.00;98814.09;5025116;28;20026;-55
2023/01/02 03:53:14;;;;;;;5.13;1.17;;;;;;;13.66;100.00;98816.44;5010658;28;20088;-55
2023/01/02 03:55:42;;;;;;;4.50;1.00;;;;;;;13.71;100.00;98819.31;5024888;28;20033;-55
2023/01/02 03:58:11;;;;;;;1.90;0.85;;;;;;;13.73;100.00;98817.22;5023379;28;20023;-55
2023/01/02 04:00:50;;;;;;;3.10;0.75;;;;;;;13.66;100.00;98819.16;5008024;28;20037;-56
2023/01/02 04:06:05;;;;;;;5.00;1.27;;;;;;;13.49;100.00;98805.31;5012790;28;20093;-78
2023/01/02 04:08:40;;;;;;;8.30;1.00;;;;;;;13.37;100.00;98802.47;4997989;28;20026;-77
2023/01/02 04:11:07;;;;;;;2.17;0.90;;;;;;;13.50;100.00;98803.41;5013133;28;20040;-77
2023/01/02 04:13:47;;;;;;;4.95;0.75;;;;;;;13.49;100.00;98799.03;5012431;28;20057;-77
2023/01/02 04:16:15;;;;;;;;;;;;;;;13.52;100.00;98814.91;4995081;28;20044;-76
2023/01/02 04:18:46;;;;;;;1.63;0.65;;;;;;;13.28;100.00;98779.34;4991098;28;19914;-78
2023/01/02 04:21:16;;;;;;;4.18;1.02;;;;;;;13.46;100.00;98813.06;4992104;28;20084;-78
2023/01/02 04:23:49;;;;;;;4.60;1.08;;;;;;;13.48;100.00;98816.38;5003027;28;20025;-78
2023/01/02 04:26:25;;;;;;;3.20;1.10;;;;;;;13.41;100.00;98796.59;5006982;28;20030;-76
2023/01/02 04:28:51;;;;;;;3.35;1.10;;;;;;;13.33;100.00;98800.41;4993990;28;20578;-77
2023/01/02 04:31:36;;;;;;;3.10;0.90;;;;;;;13.32;100.00;98813.16;4995140;28;20129;-77
2023/01/02 04:34:03;;;;;;;3.00;0.90;;;;;;;13.25;100.00;98803.38;5013016;28;20414;-77
2023/01/02 04:36:30;;;;;;;3.70;0.90;;;;;;;13.31;100.00;98802.53;4994140;28;20050;-77
2023/01/02 04:38:55;;;;;;;1.90;0.70;;;;;;;13.18;100.00;98789.00;4994041;28;20109;-78
2023/01/02 04:41:25;;;;;;;5.30;1.10;;;;;;;13.17;100.00;98801.75;4995616;28;20124;-79
2023/01/02 04:43:57;;;;;;;2.75;1.08;;;;;;;13.42;100.00;98811.84;4993298;28;20022;-77
2023/01/02 04:46:25;;;;;;;4.90;0.90;;;;;;;13.37;100.00;98816.06;4989938;28;20094;-77
2023/01/02 04:48:51;;;;;;;1.70;0.90;;;;;;;13.45;100.00;98803.25;4994982;28;20455;-78
2023/01/02 04:51:17;;;;;;;5.15;0.98;;;;;;;13.11;100.00;98753.75;4994704;28;20024;-77
2023/01/02 04:53:42;;;;;;;2.53;0.70;;;;;;;13.19;100.00;98775.19;5004947;28;20089;-78
2023/01/02 04:56:07;;;;;;;2.70;0.95;;;;;;;13.05;100.00;98770.94;4995502;28;20476;-77
2023/01/02 04:58:32;;;;;;;1.83;1.00;;;;;;;12.97;100.00;98776.59;4993793;28;20044;-75
2023/01/02 05:00:58;;;;;;;2.78;0.98;;;;;;;12.96;100.00;98786.66;4994939;28;20022;-75
2023/01/02 05:03:24;;;;;;;2.13;0.73;;;;;;;12.72;100.00;98767.38;5009865;28;20029;-78
2023/01/02 05:05:49;;;;;;;2.10;1.15;;;;;;;12.97;100.00;98791.03;4994348;28;20076;-76
2023/01/02 05:08:15;;;;;;;2.92;0.90;;;;;;;13.14;100.00;98799.47;4992702;28;20087;-77
2023/01/02 05:10:40;;;;;;;3.95;0.80;;;;;;;13.11;100.00;98778.19;4994576;28;20026;-77
2023/01/02 05:13:05;;;;;;;5.05;1.10;;;;;;;13.31;100.00;98794.38;4994829;28;20026;-78
2023/01/02 05:15:31;;;;;;;3.25;0.98;;;;;;;12.92;100.00;98734.66;4996735;28;20025;-79
2023/01/02 05:17:57;;;;;;;2.33;1.08;;;;;;;13.39;100.00;98804.97;5007583;28;20030;-79
2023/01/02 05:20:23;;;;;;;2.10;0.90;;;;;;;12.95;100.00;98757.84;5030300;28;20021;-79
2023/01/02 05:25:34;;;;;;;2.90;0.85;;;;;;;13.04;100.00;98802.66;5011061;28;20036;-77
2023/01/02 05:28:01;;;;;;;2.10;0.80;;;;;;;13.00;100.00;98806.06;4996441;28;20029;-76
2023/01/02 05:30:26;;;;;;;2.28;0.85;;;;;;;12.74;100.00;98790.78;4986132;28;20061;-76
2023/01/02 05:32:52;;;;;;;1.95;0.98;;;;;;;12.75;100.00;98814.97;5004132;28;20062;-73
2023/01/02 05:35:17;;;;;;;3.05;1.02;;;;;;;12.63;100.00;98805.88;5014750;28;20036;-83
2023/01/02 05:37:43;;;;;;;6.20;1.05;;;;;;;12.65;100.00;98803.75;5018558;28;20053;-81
2023/01/02 05:40:09;;;;;;;7.97;1.17;;;;;;;12.65;100.00;98825.47;5004810;28;20105;-83
2023/01/02 05:42:34;;;;;;;2.53;1.05;;;;;;;12.51;100.00;98797.56;5018115;28;20026;-78
2023/01/02 05:44:59;;;;;;;4.40;0.80;;;;;;;12.57;100.00;98801.28;5003551;28;20033;-81
2023/01/02 05:47:25;;;;;;;2.30;0.95;;;;;;;12.68;100.00;98803.31;5003278;28;20396;-85
2023/01/02 05:49:50;;;;;;;3.03;1.25;;;;;;;12.71;100.00;98803.72;5004639;28;20025;-81
2023/01/02 05:52:15;;;;;;;2.25;1.10;;;;;;;12.74;100.00;98794.31;5003635;28;20389;-82
2023/01/02 05:54:41;;;;;;;2.10;0.80;;;;;;;12.62;100.00;98783.28;5003398;28;20034;-81
2023/01/02 05:57:06;;;;;;;6.00;1.42;;;;;;;12.55;100.00;98778.94;4998797;28;20026;-76
2023/01/02 05:59:31;;;;;;;2.60;0.98;;;;;;;12.45;100.00;98765.88;4995492;28;20025;-77
2023/01/02 06:01:57;;;;;;;2.33;1.00;;;;;;;12.54;100.00;98782.72;4996845;28;20518;-77
2023/01/02 06:04:22;;;;;;;1.63;0.80;;;;;;;12.61;100.00;98797.94;4996112;28;20113;-78
2023/01/02 06:06:48;;;;;;;4.45;1.00;;;;;;;12.65;100.00;98803.75;4997538;28;20112;-78
2023/01/02 06:09:15;;;;;;;2.65;1.00;;;;;;;12.75;100.00;98808.72;4996558;28;20032;-77
2023/01/02 06:11:41;;;;;;;2.28;0.95;;;;;;;12.70;100.00;98806.63;5008904;28;20030;-79
2023/01/02 06:14:07;;;;;;;2.38;1.10;;;;;;;12.59;100.00;98802.72;5012741;28;20120;-78
2023/01/02 06:16:33;;;;;;;1.60;0.93;;;;;;;12.56;100.00;98800.44;4996354;28;20116;-77
2023/01/02 06:18:58;;;;;;;2.88;0.88;;;;;;;12.67;100.00;98817.94;4996880;28;20109;-77
2023/01/02 06:21:23;;;;;;;2.17;0.80;;;;;;;12.76;100.00;98822.06;5015555;28;20033;-74
2023/01/02 06:23:56;;;;;;;1.90;0.98;;;;;;;12.77;100.00;98812.88;5010557;28;20048;-85
2023/01/02 06:26:23;;;;;;;1.83;0.90;;;;;;;12.79;100.00;98829.78;4999881;28;20045;-74
2023/01/02 06:28:51;;;;;;;1.75;0.93;;;;;;;12.77;100.00;98821.03;4990253;28;20033;-75
2023/01/02 06:31:18;;;;;;;3.15;0.88;;;;;;;12.78;100.00;98830.81;4996187;28;20030;-76
2023/01/02 06:33:44;;;;;;;7.28;0.98;;;;;;;12.77;100.00;98826.44;5007116;28;20030;-78
2023/01/02 06:36:13;;;;;;;2.95;1.10;;;;;;;12.80;100.00;98839.59;4994573;28;20048;-77
2023/01/02 06:38:39;;;;;;;7.00;1.05;;;;;;;12.64;100.00;98834.66;4993790;28;20018;-74
2023/01/02 06:41:06;;;;;;;5.35;1.13;;;;;;;12.68;100.00;98847.59;4996344;28;20532;-75
2023/01/02 06:43:32;;;;;;;2.50;1.10;;;;;;;12.58;100.00;98849.09;5014745;28;20168;-82
2023/01/02 06:45:59;;;;;;;4.18;0.93;;;;;;;12.31;100.00;98800.34;5011567;28;20026;-78
2023/01/02 06:48:25;;;;;;;2.95;1.45;;;;;;;12.47;100.00;98834.28;5013311;28;20033;-76
2023/01/02 06:50:51;;;;;;;5.82;1.40;;;;;;;12.49;100.00;98833.03;4996984;28;20032;-77
2023/01/02 06:53:16;;;;;;;8.88;1.52;;;;;;;12.50;100.00;98839.31;4997040;28;20026;-74
2023/01/02 06:55:52;;;;;;;6.78;1.85;;;;;;;12.73;100.00;98849.63;4983509;28;20029;-73
2023/01/02 06:58:18;;;;;;;4.97;1.98;;;;;;;12.69;100.00;98843.81;5008129;28;20121;-71
2023/01/02 07:00:43;;;;;;;6.57;2.58;;;;;;;12.57;100.00;98844.69;4993922;28;20038;-77
2023/01/02 07:03:08;;;;;;;3.20;1.60;;;;;;;12.68;100.00;98846.72;5013079;28;20498;-76
2023/01/02 07:05:34;;;;;;;4.20;1.30;;;;;;;12.69;100.00;98849.25;4996313;28;20041;-79
2023/01/02 07:07:59;;;;;;;5.05;1.52;;;;;;;12.53;100.00;98824.50;5016429;28;20022;-75
2023/01/02 07:10:24;;;;;;;6.10;1.88;;;;;;;12.61;100.00;98852.22;4995149;28;20502;-76
2023/01/02 07:12:49;;;;;;;8.40;2.17;;;;;;;12.40;100.00;98845.19;4995609;28;20017;-77
2023/01/02 07:15:15;;;;;;;2.70;1.20;;;;;;;12.31;100.00;98862.75;4995069;28;20025;-80
2023/01/02 07:17:40;;;;;;;4.00;1.38;;;;;;;12.12;100.00;98861.75;5014648;28;20030;-80
2023/01/02 07:20:06;;;;;;;4.60;1.40;;;;;;;12.10;100.00;98892.84;4995367;28;20037;-79
2023/01/02 07:22:31;;;;;;;3.70;1.30;;;;;;;11.71;100.00;98857.41;4995283;28;20030;-77
2023/01/02 07:24:57;;;;;;;5.75;1.40;;;;;;;11.76;100.00;98886.56;4988208;28;20028;-73
2023/01/02 07:27:23;;;;;;;7.88;1.75;;;;;;;11.78;100.00;98901.59;4992385;28;20052;-76
2023/01/02 07:29:48;;;;;;;4.07;1.30;;;;;;;11.61;100.00;98895.75;4996246;28;20104;-78
2023/01/02 07:32:14;;;;;;;3.03;1.23;;;;;;;11.42;100.00;98888.44;4997802;28;20467;-76
2023/01/02 07:34:39;;;;;;;4.80;1.00;;;;;;;11.34;100.00;98894.91;4993902;28;20026;-75
2023/01/02 07:37:04;;;;;;;2.60;1.00;;;;;;;11.14;100.00;98894.84;5007041;28;20025;-70
2023/01/02 07:39:30;;;;;;;5.43;1.60;;;;;;;11.07;100.00;98898.59;5011784;28;20049;-70
2023/01/02 07:41:55;;;;;;;2.83;1.23;;;;;;;10.92;100.00;98914.97;4992084;28;20028;-70
2023/01/02 07:44:20;;;;;;;3.83;1.55;;;;;;;10.93;100.00;98919.38;5004067;28;20038;-69
2023/01/02 07:46:45;;;;;;;4.80;0.90;;;;;;;10.93;100.00;98936.44;4987071;28;20113;-70
2023/01/02 07:49:11;;;;;;;4.25;1.30;;;;;;;10.93;100.00;98906.66;4998542;28;21310;-69
2023/01/02 07:51:37;;;;;;;4.50;1.65;;;;;;;11.05;100.00;98923.16;5005039;28;21864;-70
2023/01/02 07:54:02;;;;;;;3.30;1.60;;;;;;;10.99;100.00;98923.13;4982219;28;20088;-69
2023/01/02 07:56:28;;;;;;;2.83;1.20;;;;;;;10.94;100.00;98927.28;4988239;28;20032;-70
2023/01/02 07:58:53;;;;;;;4.13;1.40;;;;;;;11.01;100.00;98935.44;4997954;28;20037;-69
2023/01/02 08:01:18;;;;;;;2.83;1.17;;;;;;;11.06;100.00;98942.97;5000778;28;20072;-69
2023/01/02 08:03:44;;;;;;;3.80;1.63;;;;;;;10.92;100.00;98936.63;5003297;28;20133;-76
2023/01/02 08:06:15;;;;;;;7.00;2.67;;;;;;;11.04;100.00;98956.69;4988107;28;20026;-70
2023/01/02 08:08:41;;;;;;;6.22;1.65;;;;;;;11.06;100.00;98957.31;5002429;28;20125;-70
2023/01/02 08:11:08;;;;;;;4.72;1.83;;;;;;;11.06;100.00;98949.19;5004231;28;20587;-71
2023/01/02 08:13:34;;;;;;;5.97;1.85;;;;;;;11.12;100.00;98956.50;5012055;28;20105;-71
2023/01/02 08:16:08;;;;;;;4.25;1.88;;;;;;;11.18;100.00;98963.81;5010191;28;20105;-72
2023/01/02 08:18:33;;;;;;;5.13;1.95;;;;;;;11.24;100.00;98947.78;4996276;28;20365;-71
2023/01/02 08:20:59;;;;;;;4.22;1.90;;;;;;;11.34;100.00;98953.63;5006403;28;20033;-71
2023/01/02 08:23:24;;;;;;;3.20;1.50;;;;;;;11.40;100.00;98956.38;4979763;28;20042;-71
2023/01/02 08:25:49;;;;;;;5.43;1.92;;;;;;;11.46;100.00;98957.44;4992559;28;20038;-71
2023/01/02 08:28:15;;;;;;;4.35;2.00;;;;;;;11.47;100.00;98950.97;5010167;28;20034;-72
2023/01/02 08:30:40;;;;;;;7.90;2.28;;;;;;;11.47;100.00;98958.25;4988298;28;20037;-71
2023/01/02 08:33:05;;;;;;;6.65;2.85;;;;;;;11.30;100.00;98945.09;4991039;28;20026;-71
2023/01/02 08:35:31;;;;;;;5.18;2.53;;;;;;;11.30;100.00;98955.09;5006950;28;20484;-71
2023/01/02 08:37:56;;;;;;;7.85;2.90;;;;;;;11.24;100.00;98953.19;4995026;28;20494;-71
2023/01/02 08:40:21;;;;;;;6.22;3.05;;;;;;;11.17;100.00;98942.34;5012493;28;20029;-70
2023/01/02 08:42:47;;;;;;;9.15;3.30;;;;;;;11.27;100.00;98959.06;5007660;28;20029;-71
2023/01/02 08:45:12;;;;;;;13.60;6.20;;;;;;;11.36;100.00;98965.13;5010210;28;20038;-70
2023/01/02 08:47:37;;;;;;;120.78;50.65;;;;;;;11.43;100.00;98968.69;4995130;28;20030;-70
2023/01/02 08:50:03;;;;;;;109.63;49.78;;;;;;;11.48;100.00;98968.91;5013567;28;20050;-70
2023/01/02 08:52:28;;;;;;;85.15;40.97;;;;;;;11.63;100.00;98976.84;5032973;28;20596;-70
2023/01/02 08:54:53;;;;;;;15.95;8.50;;;;;;;11.66;100.00;98970.16;5015876;28;20026;-70
2023/01/02 08:57:21;;;;;;;11.45;4.75;;;;;;;11.76;100.00;98957.03;4995861;28;20476;-80
2023/01/02 08:59:46;;;;;;;6.80;2.65;;;;;;;11.91;100.00;98973.97;4987156;28;20487;-72
2023/01/02 09:02:13;;;;;;;6.68;2.20;;;;;;;12.13;100.00;98965.63;5016821;28;20040;-80
2023/01/02 09:04:39;;;;;;;3.75;1.70;;;;;;;12.35;100.00;98969.81;4996089;28;20095;-78
2023/01/02 09:07:04;;;;;;;4.82;2.15;;;;;;;12.50;100.00;98964.97;5001262;28;20026;-78
2023/01/02 09:09:30;;;;;;;4.70;1.90;;;;;;;12.70;100.00;98951.34;4999804;28;20021;-76
2023/01/02 09:11:56;;;;;;;5.65;2.20;;;;;;;13.01;100.00;98948.94;4996452;28;20022;-72
2023/01/02 09:14:21;;;;;;;7.53;2.00;;;;;;;13.28;100.00;98985.84;5014781;28;20108;-74
2023/01/02 09:16:47;;;;;;;6.85;2.35;;;;;;;13.55;100.00;98988.44;5015394;28;20044;-74
2023/01/02 09:19:13;;;;;;;10.85;2.50;;;;;;;13.87;100.00;98921.25;4999272;28;20544;-77
2023/01/02 09:21:38;;;;;;;6.28;2.60;;;;;;;17.01;87.04;98949.38;4998097;28;20034;-75
2023/01/02 09:24:04;;;;;;;6.78;2.33;;;;;;;20.05;70.28;98978.34;4998285;28;20120;-72
2023/01/02 09:26:30;;;;;;;5.35;2.28;;;;;;;20.72;64.43;98987.94;4993933;28;20111;-71
2023/01/02 09:28:55;;;;;;;7.47;2.65;;;;;;;20.04;63.37;98971.19;4992026;28;20033;-71
2023/01/02 09:31:21;;;;;;;6.43;2.00;;;;;;;20.43;63.86;98973.72;5010280;28;20041;-71
2023/01/02 09:33:47;;;;;;;6.03;2.20;;;;;;;20.84;61.36;98987.75;4987836;28;20018;-71
2023/01/02 09:36:15;;;;;;;8.55;2.17;;;;;;;21.17;61.36;98998.41;5007017;28;20129;-70
2023/01/02 09:38:40;;;;;;;7.25;2.03;;;;;;;22.34;55.29;98983.28;5010781;28;20032;-71
2023/01/02 09:41:33;;;;;;;8.40;2.08;;;;;;;22.87;51.52;99000.34;5004062;28;20026;-72
2023/01/02 09:44:07;;;;;;;4.75;1.75;;;;;;;23.72;49.24;99007.78;4996111;28;20038;-78
2023/01/02 09:46:40;;;;;;;3.70;1.77;;;;;;;22.37;48.91;99012.22;4995880;28;20150;-75
2023/01/02 09:49:14;;;;;;;8.38;2.92;;;;;;;21.02;52.37;99006.56;5015322;28;20029;-74
2023/01/02 09:51:39;;;;;;;13.00;5.43;;;;;;;20.41;56.28;99019.84;5016392;28;20054;-74
2023/01/02 09:54:28;;;;;;;11.38;5.18;;;;;;;19.38;59.27;99024.28;4997165;28;20048;-75
2023/01/02 09:57:14;;;;;;;;;;;;;;;18.64;64.08;99042.94;4999262;28;20026;-79
2023/01/02 09:59:51;;;;;;;10.90;5.30;;;;;;;18.40;69.32;99048.59;4965843;28;19913;-78
2023/01/02 10:02:39;;;;;;;25.77;12.10;;;;;;;18.51;73.12;99047.69;4997929;28;20026;-78
2023/01/02 10:05:23;;;;;;;20.58;11.48;;;;;;;17.93;77.80;99046.94;5012307;28;20031;-78
2023/01/02 10:08:25;;;;;;;10.10;3.67;;;;;;;18.27;67.63;99051.66;5009015;28;20037;-77
2023/01/02 10:11:28;;;;;;;11.88;3.42;;;;;;;18.03;67.77;99051.78;5007875;28;20037;-77
2023/01/02 10:14:05;;;;;;;6.00;2.80;;;;;;;18.56;66.99;99046.94;5001471;28;20041;-74
2023/01/02 10:16:37;;;;;;;7.75;2.90;;;;;;;18.18;67.94;99037.53;5006784;28;20507;-73
2023/01/02 10:19:11;;;;;;;9.98;3.70;;;;;;;18.30;70.42;99045.69;5010009;28;20021;-72
2023/01/02 10:21:39;;;;;;;8.70;3.60;;;;;;;19.57;68.79;99043.16;4995888;28;20040;-74
2023/01/02 10:24:12;;;;;;;7.35;3.22;;;;;;;20.97;63.42;99045.06;5017246;28;20476;-75
2023/01/02 10:26:45;;;;;;;7.68;2.75;;;;;;;21.35;59.34;99048.53;5024076;28;20030;-77
2023/01/02 10:29:29;;;;;;;7.70;3.28;;;;;;;21.43;59.98;99043.41;5005238;28;20037;-77
2023/01/02 10:32:04;;;;;;;6.78;2.97;;;;;;;21.73;57.63;99049.31;5012269;28;20194;-76
2023/01/02 10:34:41;;;;;;;14.27;3.35;;;;;;;22.12;54.67;99046.91;4996606;28;20109;-76
2023/01/02 10:37:15;;;;;;;8.23;3.17;;;;;;;22.34;53.47;99051.38;5012919;28;20392;-76
2023/01/02 10:39:42;;;;;;;9.18;2.92;;;;;;;22.69;52.72;99042.28;4996267;28;20483;-76
2023/01/02 10:42:11;;;;;;;6.25;2.80;;;;;;;23.25;49.91;99047.72;4995201;28;20033;-76
2023/01/02 10:44:37;;;;;;;7.22;2.67;;;;;;;23.75;48.59;99037.59;5010921;28;20033;-70
2023/01/02 10:47:34;;;;;;;12.70;2.90;;;;;;;23.51;47.73;99039.34;5007203;28;20033;-70
2023/01/02 10:50:02;;;;;;;6.93;2.00;;;;;;;22.44;50.21;99043.09;5007006;28;20387;-70
2023/01/02 10:52:32;;;;;;;6.72;1.98;;;;;;;21.85;51.15;99042.44;5012956;28;20025;-70
2023/01/02 10:54:58;;;;;;;9.60;2.20;;;;;;;22.31;50.37;99045.31;4987687;28;20018;-70
2023/01/02 10:57:42;;;;;;;7.60;2.28;;;;;;;23.05;48.52;99039.50;4994438;28;20032;-70
2023/01/02 11:00:29;;;;;;;5.97;2.17;;;;;;;23.60;47.96;99034.88;4989982;28;20030;-70
2023/01/02 11:03:04;;;;;;;7.25;2.50;;;;;;;25.01;44.99;99047.16;4996948;28;20030;-70
2023/01/02 11:05:30;;;;;;;10.55;2.80;;;;;;;25.41;43.97;99038.72;5008436;28;20053;-70
2023/01/02 11:07:57;;;;;;;6.75;1.85;;;;;;;26.41;41.87;99028.50;5003998;28;20021;-70
2023/01/02 11:10:25;;;;;;;5.20;1.73;;;;;;;26.54;40.98;99043.56;5004803;28;20144;-69
2023/01/02 11:12:50;;;;;;;5.33;2.07;;;;;;;25.54;42.25;99044.41;5003358;28;20396;-71
2023/01/02 11:15:24;;;;;;;5.38;1.90;;;;;;;26.74;40.86;99037.66;5009959;28;20030;-72
2023/01/02 11:17:49;;;;;;;4.78;1.55;;;;;;;27.24;39.81;99037.88;5009028;28;20029;-72
2023/01/02 11:20:23;;;;;;;6.03;2.00;;;;;;;25.40;41.83;99037.91;5010366;28;20061;-71
2023/01/02 11:22:49;;;;;;;6.95;1.60;;;;;;;24.47;43.46;99053.75;5001845;28;20104;-71
2023/01/02 11:25:22;;;;;;;10.30;1.85;;;;;;;22.87;47.26;99041.72;5006416;28;20109;-70
2023/01/02 11:27:48;;;;;;;5.55;1.90;;;;;;;21.83;48.36;99036.38;4990522;28;20733;-71
2023/01/02 11:30:35;;;;;;;5.53;1.67;;;;;;;20.91;49.83;99051.63;5007266;28;20040;-70
2023/01/02 11:33:23;;;;;;;7.07;1.90;;;;;;;19.96;53.92;99052.13;5005022;28;20032;-70
2023/01/02 11:36:12;;;;;;;5.93;1.93;;;;;;;19.16;57.03;99054.44;4983649;28;20132;-71
2023/01/02 11:38:59;;;;;;;8.80;2.30;;;;;;;18.93;58.86;99033.56;5001239;28;20065;-70
2023/01/02 11:43:47;;;;;;;12.80;2.65;;;;;;;18.91;60.64;99045.84;5009029;28;20030;-71
2023/01/02 11:44:16;;;;;;;5.78;2.47;;;;;;;18.86;61.20;99029.31;5000105;28;20498;-70
2023/01/02 11:46:42;;;;;;;6.13;2.40;;;;;;;18.96;61.46;99032.22;5009089;28;20051;-70